sensor_id;sensor_type;location;lat;lon;timestamp;temperature;humidity
7708;DHT22;3896;48.758;8.888;2023-05-24T00:00:55;15.20;78.00
7708;DHT22;3896;48.758;8.888;2023-05-24T00:03:21;15.20;78.20
7708;DHT22;3896;48.758;8.888;2023-05-24T00:05:47;15.20;78.10
7708;DHT22;3896;48.758;8.888;2023-05-24T00:08:13;15.10;77.80
7708;DHT22;3896;48.758;8.888;2023-05-24T00:10:40;15.10;78.00
7708;DHT22;3896;48.758;8.888;2023-05-24T00:13:06;15.10;78.00
7708;DHT22;3896;48.758;8.888;2023-05-24T00:15:31;15.10;78.00
7708;DHT22;3896;48.758;8.888;2023-05-24T00:17:57;15.10;77.90
7708;DHT22;3896;48.758;8.888;2023-05-24T00:20:22;15.00;77.70
7708;DHT22;3896;48.758;8.888;2023-05-24T00:22:48;15.00;77.90
7708;DHT22;3896;48.758;8.888;2023-05-24T00:25:14;15.00;78.10
7708;DHT22;3896;48.758;8.888;2023-05-24T00:27:39;15.00;78.10
7708;DHT22;3896;48.758;8.888;2023-05-24T00:30:05;15.00;78.30
7708;DHT22;3896;48.758;8.888;2023-05-24T00:32:31;14.90;78.40
7708;DHT22;3896;48.758;8.888;2023-05-24T00:34:57;14.90;78.60
7708;DHT22;3896;48.758;8.888;2023-05-24T00:37:22;14.90;78.70
7708;DHT22;3896;48.758;8.888;2023-05-24T00:39:48;14.90;78.70
7708;DHT22;3896;48.758;8.888;2023-05-24T00:42:13;14.90;78.80
7708;DHT22;3896;48.758;8.888;2023-05-24T00:44:39;14.90;78.90
7708;DHT22;3896;48.758;8.888;2023-05-24T00:47:05;14.90;79.00
7708;DHT22;3896;48.758;8.888;2023-05-24T00:49:30;14.80;78.90
7708;DHT22;3896;48.758;8.888;2023-05-24T00:51:57;14.80;78.80
7708;DHT22;3896;48.758;8.888;2023-05-24T00:54:23;14.80;78.70
7708;DHT22;3896;48.758;8.888;2023-05-24T00:56:50;14.80;78.60
7708;DHT22;3896;48.758;8.888;2023-05-24T00:59:16;14.80;78.60
7708;DHT22;3896;48.758;8.888;2023-05-24T01:01:41;14.80;78.50
7708;DHT22;3896;48.758;8.888;2023-05-24T01:04:07;14.70;78.50
7708;DHT22;3896;48.758;8.888;2023-05-24T01:12:18;14.60;78.60
7708;DHT22;3896;48.758;8.888;2023-05-24T01:17:35;14.60;78.50
7708;DHT22;3896;48.758;8.888;2023-05-24T01:20:07;14.50;78.40
7708;DHT22;3896;48.758;8.888;2023-05-24T01:23:03;14.50;78.40
7708;DHT22;3896;48.758;8.888;2023-05-24T01:28:11;14.50;78.30
7708;DHT22;3896;48.758;8.888;2023-05-24T01:30:40;14.50;78.30
7708;DHT22;3896;48.758;8.888;2023-05-24T01:33:06;14.50;78.20
7708;DHT22;3896;48.758;8.888;2023-05-24T01:35:32;14.40;78.20
7708;DHT22;3896;48.758;8.888;2023-05-24T01:38:07;14.40;78.20
7708;DHT22;3896;48.758;8.888;2023-05-24T01:40:34;14.40;78.30
7708;DHT22;3896;48.758;8.888;2023-05-24T01:43:14;14.40;78.50
7708;DHT22;3896;48.758;8.888;2023-05-24T01:45:49;14.30;78.50
7708;DHT22;3896;48.758;8.888;2023-05-24T01:51:24;14.30;77.90
7708;DHT22;3896;48.758;8.888;2023-05-24T01:53:51;14.30;77.90
7708;DHT22;3896;48.758;8.888;2023-05-24T01:56:18;14.30;77.80
7708;DHT22;3896;48.758;8.888;2023-05-24T01:58:45;14.30;77.70
7708;DHT22;3896;48.758;8.888;2023-05-24T02:01:12;14.30;77.50
7708;DHT22;3896;48.758;8.888;2023-05-24T02:03:39;14.20;77.20
7708;DHT22;3896;48.758;8.888;2023-05-24T02:06:05;14.20;77.20
7708;DHT22;3896;48.758;8.888;2023-05-24T02:08:31;14.20;77.30
7708;DHT22;3896;48.758;8.888;2023-05-24T02:10:57;14.20;77.30
7708;DHT22;3896;48.758;8.888;2023-05-24T02:13:22;14.20;77.30
7708;DHT22;3896;48.758;8.888;2023-05-24T02:15:48;14.10;77.40
7708;DHT22;3896;48.758;8.888;2023-05-24T02:18:14;14.10;77.30
7708;DHT22;3896;48.758;8.888;2023-05-24T02:20:43;14.10;77.00
7708;DHT22;3896;48.758;8.888;2023-05-24T02:23:08;14.10;77.00
7708;DHT22;3896;48.758;8.888;2023-05-24T02:25:34;14.10;76.90
7708;DHT22;3896;48.758;8.888;2023-05-24T02:27:59;14.00;76.90
7708;DHT22;3896;48.758;8.888;2023-05-24T02:30:25;14.00;77.10
7708;DHT22;3896;48.758;8.888;2023-05-24T02:32:51;14.00;77.10
7708;DHT22;3896;48.758;8.888;2023-05-24T02:35:16;14.00;77.40
7708;DHT22;3896;48.758;8.888;2023-05-24T02:37:42;13.90;77.20
7708;DHT22;3896;48.758;8.888;2023-05-24T02:40:08;13.90;77.30
7708;DHT22;3896;48.758;8.888;2023-05-24T02:42:34;13.90;77.30
7708;DHT22;3896;48.758;8.888;2023-05-24T02:44:59;13.90;77.40
7708;DHT22;3896;48.758;8.888;2023-05-24T02:47:25;13.80;77.30
7708;DHT22;3896;48.758;8.888;2023-05-24T02:49:54;13.80;77.50
7708;DHT22;3896;48.758;8.888;2023-05-24T02:52:19;13.80;77.70
7708;DHT22;3896;48.758;8.888;2023-05-24T02:54:46;13.70;77.40
7708;DHT22;3896;48.758;8.888;2023-05-24T02:57:12;13.70;77.50
7708;DHT22;3896;48.758;8.888;2023-05-24T02:59:37;13.70;77.30
7708;DHT22;3896;48.758;8.888;2023-05-24T03:02:03;13.70;77.50
7708;DHT22;3896;48.758;8.888;2023-05-24T03:04:28;13.70;77.40
7708;DHT22;3896;48.758;8.888;2023-05-24T03:06:54;13.70;77.30
7708;DHT22;3896;48.758;8.888;2023-05-24T03:09:20;13.60;77.40
7708;DHT22;3896;48.758;8.888;2023-05-24T03:11:46;13.60;77.40
7708;DHT22;3896;48.758;8.888;2023-05-24T03:14:12;13.60;77.40
7708;DHT22;3896;48.758;8.888;2023-05-24T03:16:37;13.50;77.40
7708;DHT22;3896;48.758;8.888;2023-05-24T03:19:03;13.50;77.40
7708;DHT22;3896;48.758;8.888;2023-05-24T03:21:30;13.50;77.60
7708;DHT22;3896;48.758;8.888;2023-05-24T03:23:56;13.50;77.60
7708;DHT22;3896;48.758;8.888;2023-05-24T03:26:22;13.50;77.60
7708;DHT22;3896;48.758;8.888;2023-05-24T03:28:47;13.40;77.50
7708;DHT22;3896;48.758;8.888;2023-05-24T03:31:15;13.40;77.40
7708;DHT22;3896;48.758;8.888;2023-05-24T03:33:41;13.40;77.60
7708;DHT22;3896;48.758;8.888;2023-05-24T03:36:06;13.40;77.90
7708;DHT22;3896;48.758;8.888;2023-05-24T03:38:32;13.30;77.90
7708;DHT22;3896;48.758;8.888;2023-05-24T03:40:58;13.30;77.90
7708;DHT22;3896;48.758;8.888;2023-05-24T03:43:24;13.30;78.10
7708;DHT22;3896;48.758;8.888;2023-05-24T03:45:50;13.20;78.20
7708;DHT22;3896;48.758;8.888;2023-05-24T03:48:15;13.20;78.30
7708;DHT22;3896;48.758;8.888;2023-05-24T03:50:41;13.20;78.30
7708;DHT22;3896;48.758;8.888;2023-05-24T03:53:07;13.20;78.30
7708;DHT22;3896;48.758;8.888;2023-05-24T03:55:32;13.10;78.30
7708;DHT22;3896;48.758;8.888;2023-05-24T03:57:58;13.10;78.70
7708;DHT22;3896;48.758;8.888;2023-05-24T04:00:23;13.10;78.70
7708;DHT22;3896;48.758;8.888;2023-05-24T04:02:49;13.10;78.70
7708;DHT22;3896;48.758;8.888;2023-05-24T04:05:15;13.10;78.90
7708;DHT22;3896;48.758;8.888;2023-05-24T04:07:40;13.10;78.90
7708;DHT22;3896;48.758;8.888;2023-05-24T04:10:08;13.00;79.00
7708;DHT22;3896;48.758;8.888;2023-05-24T04:12:34;13.00;79.00
7708;DHT22;3896;48.758;8.888;2023-05-24T04:15:00;13.00;79.10
7708;DHT22;3896;48.758;8.888;2023-05-24T04:17:26;13.00;79.30
7708;DHT22;3896;48.758;8.888;2023-05-24T04:19:53;13.00;79.40
7708;DHT22;3896;48.758;8.888;2023-05-24T04:22:19;13.00;79.40
7708;DHT22;3896;48.758;8.888;2023-05-24T04:24:45;13.00;79.60
7708;DHT22;3896;48.758;8.888;2023-05-24T04:27:10;12.90;79.60
7708;DHT22;3896;48.758;8.888;2023-05-24T04:29:38;12.90;79.90
7708;DHT22;3896;48.758;8.888;2023-05-24T04:32:05;12.90;80.10
7708;DHT22;3896;48.758;8.888;2023-05-24T04:34:30;12.90;80.20
7708;DHT22;3896;48.758;8.888;2023-05-24T04:36:59;12.90;80.30
7708;DHT22;3896;48.758;8.888;2023-05-24T04:39:24;12.90;80.30
7708;DHT22;3896;48.758;8.888;2023-05-24T04:41:50;12.90;80.50
7708;DHT22;3896;48.758;8.888;2023-05-24T04:44:17;12.90;80.50
7708;DHT22;3896;48.758;8.888;2023-05-24T04:46:43;12.90;80.70
7708;DHT22;3896;48.758;8.888;2023-05-24T04:49:08;12.90;80.80
7708;DHT22;3896;48.758;8.888;2023-05-24T04:51:35;12.90;81.00
7708;DHT22;3896;48.758;8.888;2023-05-24T04:54:03;12.90;81.20
7708;DHT22;3896;48.758;8.888;2023-05-24T04:56:36;12.80;81.00
7708;DHT22;3896;48.758;8.888;2023-05-24T04:59:06;12.90;81.30
7708;DHT22;3896;48.758;8.888;2023-05-24T05:01:32;12.90;81.60
7708;DHT22;3896;48.758;8.888;2023-05-24T05:03:58;12.90;81.50
7708;DHT22;3896;48.758;8.888;2023-05-24T05:06:24;12.80;81.30
7708;DHT22;3896;48.758;8.888;2023-05-24T05:08:50;12.80;81.40
7708;DHT22;3896;48.758;8.888;2023-05-24T05:11:17;12.80;81.30
7708;DHT22;3896;48.758;8.888;2023-05-24T05:13:43;12.90;81.80
7708;DHT22;3896;48.758;8.888;2023-05-24T05:16:09;12.80;81.50
7708;DHT22;3896;48.758;8.888;2023-05-24T05:18:34;12.90;81.80
7708;DHT22;3896;48.758;8.888;2023-05-24T05:21:00;12.90;81.70
7708;DHT22;3896;48.758;8.888;2023-05-24T05:23:27;12.90;81.80
7708;DHT22;3896;48.758;8.888;2023-05-24T05:25:53;12.90;81.80
7708;DHT22;3896;48.758;8.888;2023-05-24T05:28:19;12.90;81.80
7708;DHT22;3896;48.758;8.888;2023-05-24T05:30:44;12.90;82.00
7708;DHT22;3896;48.758;8.888;2023-05-24T05:33:10;12.90;82.00
7708;DHT22;3896;48.758;8.888;2023-05-24T05:35:35;12.90;81.90
7708;DHT22;3896;48.758;8.888;2023-05-24T05:38:01;12.90;81.90
7708;DHT22;3896;48.758;8.888;2023-05-24T05:40:27;12.90;81.90
7708;DHT22;3896;48.758;8.888;2023-05-24T05:42:52;12.90;82.00
7708;DHT22;3896;48.758;8.888;2023-05-24T05:45:18;13.00;82.10
7708;DHT22;3896;48.758;8.888;2023-05-24T05:47:43;13.00;81.80
7708;DHT22;3896;48.758;8.888;2023-05-24T05:50:09;13.00;81.90
7708;DHT22;3896;48.758;8.888;2023-05-24T05:52:35;13.00;82.10
7708;DHT22;3896;48.758;8.888;2023-05-24T05:55:00;13.10;82.40
7708;DHT22;3896;48.758;8.888;2023-05-24T05:57:26;13.10;82.50
7708;DHT22;3896;48.758;8.888;2023-05-24T05:59:51;13.10;82.60
7708;DHT22;3896;48.758;8.888;2023-05-24T06:02:17;13.10;82.50
7708;DHT22;3896;48.758;8.888;2023-05-24T06:04:44;13.10;82.30
7708;DHT22;3896;48.758;8.888;2023-05-24T06:07:09;13.20;82.30
7708;DHT22;3896;48.758;8.888;2023-05-24T06:09:35;13.20;82.10
7708;DHT22;3896;48.758;8.888;2023-05-24T06:12:00;13.20;82.10
7708;DHT22;3896;48.758;8.888;2023-05-24T06:14:26;13.30;82.00
7708;DHT22;3896;48.758;8.888;2023-05-24T06:16:52;13.30;81.90
7708;DHT22;3896;48.758;8.888;2023-05-24T06:19:18;13.30;81.60
7708;DHT22;3896;48.758;8.888;2023-05-24T06:21:46;13.30;81.50
7708;DHT22;3896;48.758;8.888;2023-05-24T06:24:16;13.40;81.60
7708;DHT22;3896;48.758;8.888;2023-05-24T06:26:50;13.40;81.40
7708;DHT22;3896;48.758;8.888;2023-05-24T06:29:16;13.40;81.00
7708;DHT22;3896;48.758;8.888;2023-05-24T06:31:44;13.40;80.70
7708;DHT22;3896;48.758;8.888;2023-05-24T06:34:12;13.40;80.80
7708;DHT22;3896;48.758;8.888;2023-05-24T06:36:37;13.50;81.70
7708;DHT22;3896;48.758;8.888;2023-05-24T06:39:08;13.50;80.70
7708;DHT22;3896;48.758;8.888;2023-05-24T06:41:34;13.50;80.70
7708;DHT22;3896;48.758;8.888;2023-05-24T06:44:00;13.50;80.50
7708;DHT22;3896;48.758;8.888;2023-05-24T06:46:25;13.60;80.60
7708;DHT22;3896;48.758;8.888;2023-05-24T06:48:51;13.60;80.20
7708;DHT22;3896;48.758;8.888;2023-05-24T06:51:16;13.70;80.20
7708;DHT22;3896;48.758;8.888;2023-05-24T06:53:42;13.70;80.10
7708;DHT22;3896;48.758;8.888;2023-05-24T06:56:07;13.70;80.10
7708;DHT22;3896;48.758;8.888;2023-05-24T06:58:33;13.70;80.10
7708;DHT22;3896;48.758;8.888;2023-05-24T07:00:59;13.80;81.60
7708;DHT22;3896;48.758;8.888;2023-05-24T07:03:25;13.80;81.50
7708;DHT22;3896;48.758;8.888;2023-05-24T07:05:50;13.80;81.00
7708;DHT22;3896;48.758;8.888;2023-05-24T07:08:16;13.80;80.70
7708;DHT22;3896;48.758;8.888;2023-05-24T07:10:41;13.80;80.40
7708;DHT22;3896;48.758;8.888;2023-05-24T07:13:07;13.90;80.40
7708;DHT22;3896;48.758;8.888;2023-05-24T07:15:33;13.90;80.60
7708;DHT22;3896;48.758;8.888;2023-05-24T07:17:59;13.90;80.10
7708;DHT22;3896;48.758;8.888;2023-05-24T07:20:24;13.90;79.60
7708;DHT22;3896;48.758;8.888;2023-05-24T07:22:50;14.00;79.30
7708;DHT22;3896;48.758;8.888;2023-05-24T07:25:16;14.00;79.30
7708;DHT22;3896;48.758;8.888;2023-05-24T07:27:42;14.00;78.90
7708;DHT22;3896;48.758;8.888;2023-05-24T07:30:08;14.00;79.00
7708;DHT22;3896;48.758;8.888;2023-05-24T07:32:33;14.00;79.00
7708;DHT22;3896;48.758;8.888;2023-05-24T07:34:59;14.00;78.80
7708;DHT22;3896;48.758;8.888;2023-05-24T07:37:24;14.00;78.80
7708;DHT22;3896;48.758;8.888;2023-05-24T07:39:50;14.00;78.60
7708;DHT22;3896;48.758;8.888;2023-05-24T07:42:16;14.00;78.50
7708;DHT22;3896;48.758;8.888;2023-05-24T07:44:42;14.00;78.40
7708;DHT22;3896;48.758;8.888;2023-05-24T07:47:07;14.00;78.50
7708;DHT22;3896;48.758;8.888;2023-05-24T07:49:33;14.00;78.40
7708;DHT22;3896;48.758;8.888;2023-05-24T07:51:58;14.00;78.30
7708;DHT22;3896;48.758;8.888;2023-05-24T07:54:24;14.00;78.00
7708;DHT22;3896;48.758;8.888;2023-05-24T07:56:51;14.00;77.80
7708;DHT22;3896;48.758;8.888;2023-05-24T07:59:16;14.00;77.50
7708;DHT22;3896;48.758;8.888;2023-05-24T08:01:42;14.10;77.80
7708;DHT22;3896;48.758;8.888;2023-05-24T08:04:08;14.10;77.70
7708;DHT22;3896;48.758;8.888;2023-05-24T08:06:34;14.10;77.90
7708;DHT22;3896;48.758;8.888;2023-05-24T08:09:01;14.10;77.70
7708;DHT22;3896;48.758;8.888;2023-05-24T08:11:26;14.20;77.80
7708;DHT22;3896;48.758;8.888;2023-05-24T08:13:52;14.20;77.80
7708;DHT22;3896;48.758;8.888;2023-05-24T08:16:17;14.20;77.80
7708;DHT22;3896;48.758;8.888;2023-05-24T08:18:43;14.30;77.60
7708;DHT22;3896;48.758;8.888;2023-05-24T08:21:08;14.30;77.60
7708;DHT22;3896;48.758;8.888;2023-05-24T08:23:34;14.40;77.50
7708;DHT22;3896;48.758;8.888;2023-05-24T08:26:00;14.40;77.10
7708;DHT22;3896;48.758;8.888;2023-05-24T08:28:26;14.50;76.90
7708;DHT22;3896;48.758;8.888;2023-05-24T08:30:52;14.50;76.70
7708;DHT22;3896;48.758;8.888;2023-05-24T08:33:18;14.60;76.30
7708;DHT22;3896;48.758;8.888;2023-05-24T08:35:43;14.60;76.00
7708;DHT22;3896;48.758;8.888;2023-05-24T08:38:09;14.60;75.80
7708;DHT22;3896;48.758;8.888;2023-05-24T08:40:35;14.60;75.70
7708;DHT22;3896;48.758;8.888;2023-05-24T08:43:01;14.70;75.60
7708;DHT22;3896;48.758;8.888;2023-05-24T08:45:31;14.80;76.00
7708;DHT22;3896;48.758;8.888;2023-05-24T08:47:57;14.80;75.60
7708;DHT22;3896;48.758;8.888;2023-05-24T08:50:24;14.90;75.30
7708;DHT22;3896;48.758;8.888;2023-05-24T08:52:50;15.00;75.10
7708;DHT22;3896;48.758;8.888;2023-05-24T08:55:17;15.00;74.70
7708;DHT22;3896;48.758;8.888;2023-05-24T08:57:44;15.10;74.80
7708;DHT22;3896;48.758;8.888;2023-05-24T09:00:11;15.10;74.80
7708;DHT22;3896;48.758;8.888;2023-05-24T09:02:38;15.20;74.30
7708;DHT22;3896;48.758;8.888;2023-05-24T09:05:07;15.30;74.00
7708;DHT22;3896;48.758;8.888;2023-05-24T09:07:34;15.30;73.50
7708;DHT22;3896;48.758;8.888;2023-05-24T09:10:04;15.40;73.30
7708;DHT22;3896;48.758;8.888;2023-05-24T09:12:31;15.40;73.20
7708;DHT22;3896;48.758;8.888;2023-05-24T09:14:57;15.50;72.90
7708;DHT22;3896;48.758;8.888;2023-05-24T09:17:23;15.50;72.60
7708;DHT22;3896;48.758;8.888;2023-05-24T09:19:50;15.50;72.30
7708;DHT22;3896;48.758;8.888;2023-05-24T09:22:16;15.50;72.10
7708;DHT22;3896;48.758;8.888;2023-05-24T09:24:48;15.50;72.00
7708;DHT22;3896;48.758;8.888;2023-05-24T09:27:15;15.50;72.00
7708;DHT22;3896;48.758;8.888;2023-05-24T09:29:42;15.50;71.90
7708;DHT22;3896;48.758;8.888;2023-05-24T09:32:17;15.50;72.60
7708;DHT22;3896;48.758;8.888;2023-05-24T09:34:45;15.50;72.90
7708;DHT22;3896;48.758;8.888;2023-05-24T09:37:15;15.60;72.40
7708;DHT22;3896;48.758;8.888;2023-05-24T09:39:44;15.60;72.00
7708;DHT22;3896;48.758;8.888;2023-05-24T09:42:31;15.60;71.60
7708;DHT22;3896;48.758;8.888;2023-05-24T09:45:04;15.60;71.20
7708;DHT22;3896;48.758;8.888;2023-05-24T09:47:36;15.60;71.00
7708;DHT22;3896;48.758;8.888;2023-05-24T09:50:03;15.60;70.70
7708;DHT22;3896;48.758;8.888;2023-05-24T09:52:29;15.60;70.80
7708;DHT22;3896;48.758;8.888;2023-05-24T09:54:55;15.60;70.50
7708;DHT22;3896;48.758;8.888;2023-05-24T09:57:20;15.60;70.50
7708;DHT22;3896;48.758;8.888;2023-05-24T09:59:50;15.60;70.50
7708;DHT22;3896;48.758;8.888;2023-05-24T10:02:19;15.60;70.00
7708;DHT22;3896;48.758;8.888;2023-05-24T10:04:45;15.60;69.80
7708;DHT22;3896;48.758;8.888;2023-05-24T10:07:11;15.60;69.70
7708;DHT22;3896;48.758;8.888;2023-05-24T10:09:40;15.60;70.00
7708;DHT22;3896;48.758;8.888;2023-05-24T10:12:07;15.60;69.50
7708;DHT22;3896;48.758;8.888;2023-05-24T10:14:35;15.60;69.30
7708;DHT22;3896;48.758;8.888;2023-05-24T10:17:05;15.60;68.90
7708;DHT22;3896;48.758;8.888;2023-05-24T10:19:32;15.60;69.00
7708;DHT22;3896;48.758;8.888;2023-05-24T10:21:58;15.60;69.00
7708;DHT22;3896;48.758;8.888;2023-05-24T10:24:27;15.60;69.00
7708;DHT22;3896;48.758;8.888;2023-05-24T10:26:54;15.60;68.90
7708;DHT22;3896;48.758;8.888;2023-05-24T10:29:43;15.60;68.90
7708;DHT22;3896;48.758;8.888;2023-05-24T10:32:13;15.60;69.10
7708;DHT22;3896;48.758;8.888;2023-05-24T10:34:41;15.60;69.60
7708;DHT22;3896;48.758;8.888;2023-05-24T10:37:07;15.60;69.10
7708;DHT22;3896;48.758;8.888;2023-05-24T10:39:34;15.60;69.30
7708;DHT22;3896;48.758;8.888;2023-05-24T10:42:06;15.70;69.90
7708;DHT22;3896;48.758;8.888;2023-05-24T10:44:32;15.70;69.40
7708;DHT22;3896;48.758;8.888;2023-05-24T10:47:10;15.70;69.30
7708;DHT22;3896;48.758;8.888;2023-05-24T10:49:37;15.70;69.30
7708;DHT22;3896;48.758;8.888;2023-05-24T10:52:07;15.80;69.40
7708;DHT22;3896;48.758;8.888;2023-05-24T10:54:33;15.80;69.00
7708;DHT22;3896;48.758;8.888;2023-05-24T10:57:01;15.90;69.00
7708;DHT22;3896;48.758;8.888;2023-05-24T10:59:35;15.90;68.80
7708;DHT22;3896;48.758;8.888;2023-05-24T11:02:08;15.90;68.80
7708;DHT22;3896;48.758;8.888;2023-05-24T11:04:42;16.00;68.60
7708;DHT22;3896;48.758;8.888;2023-05-24T11:07:12;16.00;68.50
7708;DHT22;3896;48.758;8.888;2023-05-24T11:09:39;16.00;68.30
7708;DHT22;3896;48.758;8.888;2023-05-24T11:12:17;16.10;69.10
7708;DHT22;3896;48.758;8.888;2023-05-24T11:14:49;16.10;67.70
7708;DHT22;3896;48.758;8.888;2023-05-24T11:17:15;16.20;67.70
7708;DHT22;3896;48.758;8.888;2023-05-24T11:22:13;16.30;68.30
7708;DHT22;3896;48.758;8.888;2023-05-24T11:24:40;16.30;68.10
7708;DHT22;3896;48.758;8.888;2023-05-24T11:27:06;16.40;67.30
7708;DHT22;3896;48.758;8.888;2023-05-24T11:29:38;16.50;67.30
7708;DHT22;3896;48.758;8.888;2023-05-24T11:32:04;16.70;67.80
7708;DHT22;3896;48.758;8.888;2023-05-24T11:34:32;16.90;67.80
7708;DHT22;3896;48.758;8.888;2023-05-24T11:37:00;17.10;67.50
7708;DHT22;3896;48.758;8.888;2023-05-24T11:39:33;17.20;67.00
7708;DHT22;3896;48.758;8.888;2023-05-24T11:41:59;17.40;65.70
7708;DHT22;3896;48.758;8.888;2023-05-24T11:44:29;17.70;65.20
7708;DHT22;3896;48.758;8.888;2023-05-24T11:46:57;17.90;64.60
7708;DHT22;3896;48.758;8.888;2023-05-24T11:49:23;18.10;63.90
7708;DHT22;3896;48.758;8.888;2023-05-24T11:51:51;18.30;63.00
7708;DHT22;3896;48.758;8.888;2023-05-24T11:54:18;18.60;62.30
7708;DHT22;3896;48.758;8.888;2023-05-24T11:56:43;18.80;62.10
7708;DHT22;3896;48.758;8.888;2023-05-24T11:59:23;19.00;60.80
7708;DHT22;3896;48.758;8.888;2023-05-24T12:01:56;19.10;60.40
7708;DHT22;3896;48.758;8.888;2023-05-24T12:04:23;19.30;59.50
7708;DHT22;3896;48.758;8.888;2023-05-24T12:06:49;19.60;57.90
7708;DHT22;3896;48.758;8.888;2023-05-24T12:09:14;19.70;56.80
7708;DHT22;3896;48.758;8.888;2023-05-24T12:11:42;19.90;56.00
7708;DHT22;3896;48.758;8.888;2023-05-24T12:14:13;20.10;55.50
7708;DHT22;3896;48.758;8.888;2023-05-24T12:16:40;20.30;55.60
7708;DHT22;3896;48.758;8.888;2023-05-24T12:19:07;20.50;53.60
7708;DHT22;3896;48.758;8.888;2023-05-24T12:21:32;20.70;53.10
7708;DHT22;3896;48.758;8.888;2023-05-24T12:24:15;20.80;52.80
7708;DHT22;3896;48.758;8.888;2023-05-24T12:26:42;20.90;53.10
7708;DHT22;3896;48.758;8.888;2023-05-24T12:29:09;21.10;52.90
7708;DHT22;3896;48.758;8.888;2023-05-24T12:31:36;21.30;52.40
7708;DHT22;3896;48.758;8.888;2023-05-24T12:34:02;21.50;52.70
7708;DHT22;3896;48.758;8.888;2023-05-24T12:36:29;21.60;51.70
7708;DHT22;3896;48.758;8.888;2023-05-24T12:38:58;21.80;51.10
7708;DHT22;3896;48.758;8.888;2023-05-24T12:41:24;22.00;51.20
7708;DHT22;3896;48.758;8.888;2023-05-24T12:43:51;22.10;51.00
7708;DHT22;3896;48.758;8.888;2023-05-24T12:46:17;22.20;51.00
7708;DHT22;3896;48.758;8.888;2023-05-24T12:48:43;22.30;51.10
7708;DHT22;3896;48.758;8.888;2023-05-24T12:51:08;22.50;50.90
7708;DHT22;3896;48.758;8.888;2023-05-24T12:53:35;22.70;50.30
7708;DHT22;3896;48.758;8.888;2023-05-24T12:56:01;22.90;49.90
7708;DHT22;3896;48.758;8.888;2023-05-24T12:58:26;23.00;49.90
7708;DHT22;3896;48.758;8.888;2023-05-24T13:00:52;23.00;50.20
7708;DHT22;3896;48.758;8.888;2023-05-24T13:03:18;23.10;49.70
7708;DHT22;3896;48.758;8.888;2023-05-24T13:05:44;23.10;48.90
7708;DHT22;3896;48.758;8.888;2023-05-24T13:08:11;23.20;48.30
7708;DHT22;3896;48.758;8.888;2023-05-24T13:10:37;23.20;47.70
7708;DHT22;3896;48.758;8.888;2023-05-24T13:13:03;23.30;47.20
7708;DHT22;3896;48.758;8.888;2023-05-24T13:15:29;23.30;47.20
7708;DHT22;3896;48.758;8.888;2023-05-24T13:17:54;23.40;47.10
7708;DHT22;3896;48.758;8.888;2023-05-24T13:20:20;23.40;47.00
7708;DHT22;3896;48.758;8.888;2023-05-24T13:22:48;23.40;47.30
7708;DHT22;3896;48.758;8.888;2023-05-24T13:25:14;23.40;47.70
7708;DHT22;3896;48.758;8.888;2023-05-24T13:27:40;23.40;47.60
7708;DHT22;3896;48.758;8.888;2023-05-24T13:30:06;23.50;47.40
7708;DHT22;3896;48.758;8.888;2023-05-24T13:32:32;23.60;46.90
7708;DHT22;3896;48.758;8.888;2023-05-24T13:34:57;23.60;46.30
7708;DHT22;3896;48.758;8.888;2023-05-24T13:37:23;23.60;46.00
7708;DHT22;3896;48.758;8.888;2023-05-24T13:39:49;23.70;46.20
7708;DHT22;3896;48.758;8.888;2023-05-24T13:42:14;23.80;46.00
7708;DHT22;3896;48.758;8.888;2023-05-24T13:44:40;24.00;45.60
7708;DHT22;3896;48.758;8.888;2023-05-24T13:47:06;24.10;46.00
7708;DHT22;3896;48.758;8.888;2023-05-24T13:49:32;24.20;45.50
7708;DHT22;3896;48.758;8.888;2023-05-24T13:51:58;24.30;45.30
7708;DHT22;3896;48.758;8.888;2023-05-24T13:54:24;24.40;45.70
7708;DHT22;3896;48.758;8.888;2023-05-24T13:56:50;24.50;44.80
7708;DHT22;3896;48.758;8.888;2023-05-24T13:59:16;24.60;44.70
7708;DHT22;3896;48.758;8.888;2023-05-24T14:01:42;24.60;44.40
7708;DHT22;3896;48.758;8.888;2023-05-24T14:04:09;24.70;43.70
7708;DHT22;3896;48.758;8.888;2023-05-24T14:06:35;24.70;44.20
7708;DHT22;3896;48.758;8.888;2023-05-24T14:09:03;24.80;43.90
7708;DHT22;3896;48.758;8.888;2023-05-24T14:11:31;25.00;44.20
7708;DHT22;3896;48.758;8.888;2023-05-24T14:13:56;25.10;43.70
7708;DHT22;3896;48.758;8.888;2023-05-24T14:16:23;25.20;43.30
7708;DHT22;3896;48.758;8.888;2023-05-24T14:18:49;25.20;42.80
7708;DHT22;3896;48.758;8.888;2023-05-24T14:21:17;25.40;42.90
7708;DHT22;3896;48.758;8.888;2023-05-24T14:23:43;25.50;42.70
7708;DHT22;3896;48.758;8.888;2023-05-24T14:26:08;25.50;42.70
7708;DHT22;3896;48.758;8.888;2023-05-24T14:28:34;25.70;42.70
7708;DHT22;3896;48.758;8.888;2023-05-24T14:31:00;25.80;42.00
7708;DHT22;3896;48.758;8.888;2023-05-24T14:33:25;26.00;42.00
7708;DHT22;3896;48.758;8.888;2023-05-24T14:35:51;26.00;41.70
7708;DHT22;3896;48.758;8.888;2023-05-24T14:38:16;26.00;41.60
7708;DHT22;3896;48.758;8.888;2023-05-24T14:40:42;26.00;41.50
7708;DHT22;3896;48.758;8.888;2023-05-24T14:43:11;25.80;41.30
7708;DHT22;3896;48.758;8.888;2023-05-24T14:45:37;25.80;40.70
7708;DHT22;3896;48.758;8.888;2023-05-24T14:48:04;25.60;41.10
7708;DHT22;3896;48.758;8.888;2023-05-24T14:50:29;25.60;41.80
7708;DHT22;3896;48.758;8.888;2023-05-24T14:52:55;25.50;41.70
7708;DHT22;3896;48.758;8.888;2023-05-24T14:55:21;25.50;41.50
7708;DHT22;3896;48.758;8.888;2023-05-24T14:57:47;25.50;41.60
7708;DHT22;3896;48.758;8.888;2023-05-24T15:00:13;25.60;41.70
7708;DHT22;3896;48.758;8.888;2023-05-24T15:02:39;25.60;41.30
7708;DHT22;3896;48.758;8.888;2023-05-24T15:05:05;25.70;41.80
7708;DHT22;3896;48.758;8.888;2023-05-24T15:07:31;25.70;41.10
7708;DHT22;3896;48.758;8.888;2023-05-24T15:09:56;25.70;40.90
7708;DHT22;3896;48.758;8.888;2023-05-24T15:12:22;25.70;40.80
7708;DHT22;3896;48.758;8.888;2023-05-24T15:14:47;25.70;40.50
7708;DHT22;3896;48.758;8.888;2023-05-24T15:17:13;25.70;40.60
7708;DHT22;3896;48.758;8.888;2023-05-24T15:19:39;25.50;40.50
7708;DHT22;3896;48.758;8.888;2023-05-24T15:22:08;25.40;40.50
7708;DHT22;3896;48.758;8.888;2023-05-24T15:24:33;25.20;40.60
7708;DHT22;3896;48.758;8.888;2023-05-24T15:26:59;25.10;41.10
7708;DHT22;3896;48.758;8.888;2023-05-24T15:29:26;24.90;41.40
7708;DHT22;3896;48.758;8.888;2023-05-24T15:31:51;24.80;41.90
7708;DHT22;3896;48.758;8.888;2023-05-24T15:34:17;24.70;41.80
7708;DHT22;3896;48.758;8.888;2023-05-24T15:36:44;24.60;42.00
7708;DHT22;3896;48.758;8.888;2023-05-24T15:39:10;24.50;42.20
7708;DHT22;3896;48.758;8.888;2023-05-24T15:41:35;24.40;42.30
7708;DHT22;3896;48.758;8.888;2023-05-24T15:44:02;24.30;42.30
7708;DHT22;3896;48.758;8.888;2023-05-24T15:46:33;24.30;42.30
7708;DHT22;3896;48.758;8.888;2023-05-24T15:48:59;24.20;42.30
7708;DHT22;3896;48.758;8.888;2023-05-24T15:51:24;24.10;42.60
7708;DHT22;3896;48.758;8.888;2023-05-24T15:53:50;24.10;42.60
7708;DHT22;3896;48.758;8.888;2023-05-24T15:56:15;24.00;42.50
7708;DHT22;3896;48.758;8.888;2023-05-24T15:58:41;24.00;42.80
7708;DHT22;3896;48.758;8.888;2023-05-24T16:01:06;23.90;43.10
7708;DHT22;3896;48.758;8.888;2023-05-24T16:03:32;23.80;43.20
7708;DHT22;3896;48.758;8.888;2023-05-24T16:05:57;23.70;43.00
7708;DHT22;3896;48.758;8.888;2023-05-24T16:08:23;23.60;43.10
7708;DHT22;3896;48.758;8.888;2023-05-24T16:10:52;23.50;43.40
7708;DHT22;3896;48.758;8.888;2023-05-24T16:13:18;23.40;43.20
7708;DHT22;3896;48.758;8.888;2023-05-24T16:15:44;23.30;43.10